METAR Data
IDs: Format: Raw Decoded Include TAF

Data at: 0837 UTC 01 Aug 2021

EGXS 010750Z AUTO 34004KT 9999 // BKN034/// BKN044/// 14/11 Q1010